createdAt,value
2022-11-18T00:00:14.230Z,45.40
2022-11-18T00:04:32.456Z,32.73
2022-11-18T00:08:34.436Z,73.57
2022-11-18T00:13:38.736Z,59.97
2022-11-18T00:17:44.354Z,38.23
2022-11-18T00:21:47.842Z,74.20
2022-11-18T00:25:49.760Z,93.03
2022-11-18T00:30:07.633Z,13.97
2022-11-18T00:34:13.819Z,24.90
2022-11-18T00:38:15.768Z,19.03
2022-11-18T00:42:36.358Z,25.83
2022-11-18T00:46:38.200Z,55.33
2022-11-18T00:50:40.025Z,23.20
2022-11-18T00:54:41.905Z,17.37
2022-11-18T00:58:43.741Z,10.93
2022-11-18T01:02:55.143Z,12.87
2022-11-18T01:07:53.010Z,22.43
2022-11-18T01:12:13.513Z,11.50
2022-11-18T01:16:23.397Z,74.87
2022-11-18T01:20:53.137Z,109.93
2022-11-18T01:24:56.153Z,68.23
2022-11-18T01:29:04.290Z,121.87
2022-11-18T01:33:40.857Z,201.03
2022-11-18T01:37:48.199Z,78.03
2022-11-18T01:42:27.939Z,11.03
2022-11-18T01:46:34.670Z,96.33
2022-11-18T01:51:12.344Z,50.97
2022-11-18T01:55:18.785Z,83.87
2022-11-18T01:59:48.450Z,93.67
2022-11-18T02:04:20.173Z,240.10
2022-11-18T02:08:23.438Z,24.50
2022-11-18T02:12:25.522Z,15.70
2022-11-18T02:17:11.063Z,160.23
2022-11-18T02:21:59.230Z,58.57
2022-11-18T02:26:22.977Z,18.07
2022-11-18T02:30:26.451Z,75.17
2022-11-18T02:34:51.885Z,36.37
2022-11-18T02:39:59.114Z,87.40
2022-11-18T02:44:53.582Z,32.33
2022-11-18T02:48:56.289Z,47.90
2022-11-18T02:53:01.440Z,49.37
2022-11-18T02:57:06.512Z,29.50
2022-11-18T03:01:20.041Z,79.80
2022-11-18T03:05:47.075Z,216.33
2022-11-18T03:09:51.934Z,158.27
2022-11-18T03:14:20.152Z,117.23
2022-11-18T03:18:31.599Z,76.77
2022-11-18T03:22:54.113Z,46.10
2022-11-18T03:27:13.125Z,98.40
2022-11-18T03:31:39.472Z,40.00
2022-11-18T03:35:45.668Z,82.70
2022-11-18T03:39:53.956Z,185.40
2022-11-18T03:44:26.562Z,53.90
2022-11-18T03:48:36.212Z,64.77
2022-11-18T03:52:39.701Z,106.10
2022-11-18T03:56:46.529Z,29.50
2022-11-18T04:01:48.972Z,45.17
2022-11-18T04:06:12.626Z,71.87
2022-11-18T04:10:48.797Z,42.97
2022-11-18T04:14:55.527Z,22.73
2022-11-18T04:19:01.453Z,92.80
2022-11-18T04:23:44.024Z,34.90
2022-11-18T04:28:20.172Z,7.47
2022-11-18T04:32:22.071Z,9.67
2022-11-18T04:36:25.270Z,6.23
2022-11-18T04:40:32.236Z,23.73
2022-11-18T04:44:35.221Z,14.10
2022-11-18T04:48:37.097Z,24.67
2022-11-18T04:52:54.445Z,7.63
2022-11-18T04:56:56.376Z,36.60
2022-11-18T05:00:58.422Z,23.87
2022-11-18T05:05:00.709Z,32.47
2022-11-18T05:09:04.887Z,52.87
2022-11-18T05:13:06.961Z,40.53
2022-11-18T05:17:10.214Z,28.87
2022-11-18T05:21:12.097Z,36.27
2022-11-18T05:25:14.390Z,85.00
2022-11-18T05:29:54.951Z,20.53
2022-11-18T05:33:56.866Z,54.43
2022-11-18T05:38:05.108Z,54.97
2022-11-18T05:46:52.201Z,40.53
2022-11-18T05:51:23.343Z,14.50
2022-11-18T05:56:20.039Z,32.13
2022-11-18T06:00:23.311Z,29.57
2022-11-18T06:04:57.445Z,55.10
2022-11-18T06:09:16.078Z,35.93
2022-11-18T06:13:28.385Z,42.90
2022-11-18T06:17:36.228Z,37.00
2022-11-18T06:21:38.531Z,83.50
2022-11-18T06:25:41.623Z,129.67
2022-11-18T06:29:44.803Z,59.23
2022-11-18T06:33:48.788Z,52.97
2022-11-18T06:37:50.714Z,12.43
2022-11-18T06:41:54.100Z,21.53
2022-11-18T06:46:37.514Z,15.53
2022-11-18T06:50:45.172Z,20.90
2022-11-18T06:54:47.238Z,5.83
2022-11-18T06:59:23.820Z,6.90
2022-11-18T07:03:42.492Z,36.03
2022-11-18T07:07:45.609Z,7.57
2022-11-18T07:11:47.606Z,11.40
2022-11-18T07:15:49.516Z,45.93
2022-11-18T07:19:51.366Z,4.00
2022-11-18T07:23:53.975Z,3.83
2022-11-18T07:27:55.921Z,4.37
2022-11-18T07:31:57.770Z,6.27
2022-11-18T07:36:08.485Z,4.37
2022-11-18T07:41:02.807Z,4.40
2022-11-18T07:45:05.133Z,3.97
2022-11-18T07:49:20.820Z,4.03
2022-11-18T07:53:25.204Z,5.47
2022-11-18T07:58:04.368Z,4.30
2022-11-18T08:02:56.616Z,5.67
2022-11-18T08:08:13.341Z,7.60
2022-11-18T08:12:15.191Z,4.40
2022-11-18T08:16:25.541Z,3.63
2022-11-18T08:20:29.569Z,3.63
2022-11-18T08:24:35.712Z,6.07
2022-11-18T08:29:46.940Z,2.20
2022-11-18T08:34:01.033Z,3.63
2022-11-18T08:38:03.078Z,3.73
2022-11-18T08:42:04.992Z,3.60
2022-11-18T08:46:17.270Z,3.53
2022-11-18T08:50:19.417Z,2.13
2022-11-18T08:54:35.931Z,3.33
2022-11-18T08:58:42.567Z,2.70
2022-11-18T09:02:46.589Z,4.27
2022-11-18T09:06:48.502Z,3.80
2022-11-18T09:10:50.489Z,4.00
2022-11-18T09:15:12.948Z,5.67
2022-11-18T09:19:45.639Z,4.50
2022-11-18T09:24:05.220Z,5.13
2022-11-18T09:28:33.109Z,3.60
2022-11-18T09:33:01.536Z,3.40
2022-11-18T09:37:06.653Z,2.80
2022-11-18T09:41:46.835Z,3.43
2022-11-18T09:45:56.748Z,3.43
2022-11-18T09:50:15.153Z,2.40
2022-11-18T09:54:38.302Z,1.30
2022-11-18T09:58:40.259Z,2.07
2022-11-18T10:02:52.593Z,1.03
2022-11-18T10:06:54.588Z,1.70
2022-11-18T10:11:51.747Z,1.17
2022-11-18T10:16:32.720Z,1.00
2022-11-18T10:20:56.142Z,1.40
2022-11-18T10:25:00.881Z,1.10
2022-11-18T10:29:03.990Z,1.57
2022-11-18T10:33:34.295Z,1.77
2022-11-18T10:38:07.277Z,1.20
2022-11-18T10:42:07.547Z,1.57
2022-11-18T10:46:18.121Z,1.33
2022-11-18T10:56:45.521Z,1.70
2022-11-18T11:00:50.210Z,1.37
2022-11-18T11:04:53.907Z,1.17
2022-11-18T11:09:08.971Z,1.83
2022-11-18T11:13:40.254Z,1.93
2022-11-18T11:18:16.321Z,1.50
2022-11-18T11:23:11.695Z,1.53
2022-11-18T11:33:56.727Z,1.23
2022-11-18T11:38:00.925Z,1.40
2022-11-18T11:42:27.665Z,1.40
2022-11-18T11:47:15.033Z,1.30
2022-11-18T11:52:16.461Z,1.60
2022-11-18T11:56:55.325Z,1.47
2022-11-18T12:01:59.966Z,1.10
2022-11-18T12:06:29.907Z,1.07
2022-11-18T12:16:33.998Z,1.57
2022-11-18T12:20:53.746Z,1.73
2022-11-18T12:25:18.347Z,1.87
2022-11-18T12:29:22.447Z,1.37
2022-11-18T12:34:06.768Z,1.20
2022-11-18T12:38:40.544Z,1.20
2022-11-18T12:43:10.721Z,0.73
2022-11-18T12:47:19.178Z,1.07
2022-11-18T12:51:44.981Z,0.77
2022-11-18T12:56:29.943Z,2.50
2022-11-18T13:01:24.779Z,2.20
2022-11-18T13:06:26.765Z,2.07
2022-11-18T13:10:32.155Z,2.43
2022-11-18T13:15:34.323Z,3.13
2022-11-18T13:19:39.999Z,3.70
2022-11-18T13:23:56.326Z,4.40
2022-11-18T13:28:57.702Z,3.67
2022-11-18T13:33:04.053Z,8.10
2022-11-18T13:37:20.003Z,5.00
2022-11-18T13:41:36.069Z,6.80
2022-11-18T13:45:51.588Z,4.90
2022-11-18T13:50:44.695Z,6.10
2022-11-18T13:54:47.339Z,5.93
2022-11-18T13:59:42.200Z,2.60
2022-11-18T14:04:05.300Z,3.03
2022-11-18T14:08:25.561Z,1.70
2022-11-18T14:12:57.830Z,2.20
2022-11-18T14:17:19.026Z,1.53
2022-11-18T14:22:31.490Z,108.87
2022-11-18T14:26:38.342Z,149.97
2022-11-18T14:30:42.572Z,39.60
2022-11-18T14:34:44.457Z,85.67
2022-11-18T14:43:12.524Z,11.73
2022-11-18T14:47:30.352Z,110.67
2022-11-18T14:51:37.942Z,45.53
2022-11-18T14:55:40.691Z,36.60
2022-11-18T14:59:42.979Z,87.00
2022-11-18T15:04:00.405Z,101.80
2022-11-18T15:08:03.016Z,50.67
2022-11-18T15:12:05.991Z,5.50
2022-11-18T15:16:33.811Z,1.10
2022-11-18T15:20:36.751Z,20.07
2022-11-18T15:24:41.919Z,121.83
2022-11-18T15:28:43.931Z,279.33
2022-11-18T15:33:13.646Z,223.00
2022-11-18T15:37:19.748Z,336.93
2022-11-18T15:41:52.931Z,357.13
2022-11-18T15:45:59.178Z,241.57
2022-11-18T15:50:01.151Z,106.30
2022-11-18T15:54:03.504Z,200.00
2022-11-18T15:58:11.056Z,426.50
2022-11-18T16:02:20.172Z,287.87
2022-11-18T16:06:24.858Z,331.70
2022-11-18T16:10:46.206Z,173.60
2022-11-18T16:15:08.360Z,115.77
2022-11-18T16:20:14.470Z,87.33
2022-11-18T16:24:48.359Z,146.50
2022-11-18T16:28:53.114Z,114.03
2022-11-18T16:33:04.711Z,46.63
2022-11-18T16:37:10.972Z,133.97
2022-11-18T16:41:32.451Z,24.57
2022-11-18T16:45:37.915Z,84.87
2022-11-18T16:49:40.015Z,28.90
2022-11-18T16:53:41.945Z,60.97
2022-11-18T16:57:44.060Z,4.47
2022-11-18T17:01:47.461Z,5.07
2022-11-18T17:05:49.315Z,2.97
2022-11-18T17:09:51.331Z,1.90
2022-11-18T17:13:57.896Z,1.77
2022-11-18T17:18:01.375Z,3.17
2022-11-18T17:22:03.593Z,14.37
2022-11-18T17:26:07.035Z,4.87
2022-11-18T17:30:37.054Z,10.50
2022-11-18T17:34:40.066Z,2.27
2022-11-18T17:38:44.974Z,9.90
2022-11-18T17:43:05.664Z,3.63
2022-11-18T17:47:38.010Z,2.80
2022-11-18T17:51:41.170Z,146.30
2022-11-18T17:55:45.928Z,55.03
2022-11-18T17:59:47.834Z,268.07
2022-11-18T18:03:50.718Z,18.03
2022-11-18T18:09:03.488Z,3.47
2022-11-18T18:14:15.034Z,168.63
2022-11-18T18:18:20.808Z,176.77
2022-11-18T18:22:22.901Z,144.83
2022-11-18T18:26:30.894Z,437.97
2022-11-18T18:30:45.713Z,429.00
2022-11-18T18:34:47.674Z,269.27
2022-11-18T18:38:57.604Z,212.57
2022-11-18T18:43:04.857Z,322.00
2022-11-18T18:47:09.080Z,353.63
2022-11-18T18:51:42.112Z,222.63
2022-11-18T18:56:03.472Z,260.07
2022-11-18T19:00:05.825Z,331.60
2022-11-18T19:04:14.543Z,309.37
2022-11-18T19:08:20.959Z,252.03
2022-11-18T19:12:44.143Z,250.23
2022-11-18T19:17:55.773Z,204.57
2022-11-18T19:21:57.947Z,324.10
2022-11-18T19:26:20.769Z,230.00
2022-11-18T19:31:16.001Z,281.77
2022-11-18T19:35:23.190Z,226.67
2022-11-18T19:39:32.540Z,22.67
2022-11-18T19:43:34.968Z,70.63
2022-11-18T19:47:37.659Z,8.20
2022-11-18T19:51:39.557Z,161.23
2022-11-18T19:56:08.592Z,63.97
2022-11-18T20:00:11.141Z,108.17
2022-11-18T20:04:35.051Z,32.80
2022-11-18T20:09:33.362Z,12.47
2022-11-18T20:13:38.974Z,11.93
2022-11-18T20:17:50.225Z,11.30
2022-11-18T20:21:56.883Z,13.73
2022-11-18T20:26:27.982Z,15.77
2022-11-18T20:30:29.849Z,16.77
2022-11-18T20:34:31.697Z,20.33
2022-11-18T20:38:34.307Z,20.60
2022-11-18T20:42:55.126Z,23.50
2022-11-18T20:47:22.231Z,25.20
2022-11-18T20:51:26.297Z,21.33
2022-11-18T20:55:28.298Z,19.57
2022-11-18T20:59:32.564Z,19.00
2022-11-18T21:03:37.508Z,21.50
2022-11-18T21:08:04.869Z,23.87
2022-11-18T21:12:06.870Z,19.00
2022-11-18T21:16:34.774Z,20.47
2022-11-18T21:21:05.400Z,24.27
2022-11-18T21:25:32.827Z,23.60
2022-11-18T21:29:53.341Z,21.87
2022-11-18T21:33:56.220Z,20.40
2022-11-18T21:38:05.995Z,19.10
2022-11-18T21:42:08.102Z,22.33
2022-11-18T21:46:17.318Z,24.33
2022-11-18T21:50:19.310Z,20.80
2022-11-18T21:54:21.240Z,19.57
2022-11-18T21:58:23.109Z,18.73
2022-11-18T22:02:24.980Z,21.70
2022-11-18T22:06:33.640Z,19.77
2022-11-18T22:10:38.267Z,18.27
2022-11-18T22:14:40.612Z,20.00
2022-11-18T22:19:01.406Z,17.30
2022-11-18T22:23:07.003Z,18.23
2022-11-18T22:27:20.202Z,18.23
2022-11-18T22:31:26.111Z,19.03
2022-11-18T22:35:46.631Z,19.90
2022-11-18T22:39:50.628Z,21.60
2022-11-18T22:44:08.091Z,17.80
2022-11-18T22:48:10.213Z,18.37
2022-11-18T22:52:12.045Z,14.67
2022-11-18T22:56:15.137Z,16.03
2022-11-18T23:00:18.734Z,14.63
2022-11-18T23:05:23.588Z,16.63
2022-11-18T23:09:25.519Z,17.93
2022-11-18T23:13:45.897Z,20.10
2022-11-18T23:17:51.760Z,22.60
2022-11-18T23:21:59.749Z,23.97
2022-11-18T23:26:10.169Z,20.97
2022-11-18T23:30:19.278Z,24.40
2022-11-18T23:34:49.589Z,27.03
2022-11-18T23:39:04.908Z,24.00
2022-11-18T23:43:06.787Z,24.60
2022-11-18T23:47:08.704Z,23.33
2022-11-18T23:51:22.100Z,30.57
2022-11-18T23:55:42.447Z,26.57
2022-11-18T23:59:44.273Z,26.10
